Time,TemperatureF,DewpointF,PressureIn,WindDirection,WindDirectionDegrees,WindSpeedMPH,WindSpeedGustMPH,Humidity,HourlyPrecipIn,Conditions,Clouds,dailyrainin,SoftwareType,DateUTC
2013-05-11 00:02:00,50.0,-99.9,-100.00,SSW,210,1.0,2.0,-999,0.00,,,0.01,,2013-05-11 05:02:00,
2013-05-11 00:12:00,50.0,-99.9,-100.00,SSW,210,1.0,2.0,-999,0.00,,,0.01,,2013-05-11 05:12:00,
2013-05-11 00:22:00,50.0,-99.9,-100.00,SSW,210,1.0,2.0,-999,0.00,,,0.01,,2013-05-11 05:22:00,
2013-05-11 00:32:00,50.0,-99.9,-100.00,SSW,206,2.0,4.0,-999,0.00,,,0.01,,2013-05-11 05:32:00,
2013-05-11 00:43:00,50.0,-99.9,-100.00,SSW,206,2.0,4.0,-999,0.00,,,0.01,,2013-05-11 05:43:00,
2013-05-11 00:52:00,50.0,-99.9,-100.00,SSW,206,2.0,4.0,-999,0.00,,,0.01,,2013-05-11 05:52:00,
2013-05-11 01:02:00,50.0,-99.9,-100.00,South,184,1.0,2.0,-999,0.00,,,0.01,,2013-05-11 06:02:00,
2013-05-11 01:12:00,50.0,-99.9,-100.00,South,184,1.0,2.0,-999,0.00,,,0.01,,2013-05-11 06:12:00,
2013-05-11 01:22:00,50.0,-99.9,-100.00,South,184,1.0,2.0,-999,0.00,,,0.01,,2013-05-11 06:22:00,
2013-05-11 01:32:00,49.0,-99.9,-100.00,SE,146,1.0,2.0,-999,0.00,,,0.01,,2013-05-11 06:32:00,
2013-05-11 01:42:00,49.0,-99.9,-100.00,SE,146,1.0,2.0,-999,0.00,,,0.01,,2013-05-11 06:42:00,
2013-05-11 01:53:00,49.0,-99.9,-100.00,SE,146,1.0,2.0,-999,0.00,,,0.01,,2013-05-11 06:53:00,
2013-05-11 02:02:00,49.0,-99.9,-100.00,South,188,0.0,1.0,-999,0.00,,,0.01,,2013-05-11 07:02:00,
2013-05-11 02:12:00,49.0,-99.9,-100.00,South,188,0.0,1.0,-999,0.00,,,0.01,,2013-05-11 07:12:00,
2013-05-11 02:22:00,49.0,-99.9,-100.00,South,188,0.0,1.0,-999,0.00,,,0.01,,2013-05-11 07:22:00,
2013-05-11 02:32:00,49.0,-99.9,-100.00,South,183,2.0,2.0,-999,0.00,,,0.01,,2013-05-11 07:32:00,
2013-05-11 02:42:00,49.0,-99.9,-100.00,South,183,2.0,2.0,-999,0.00,,,0.01,,2013-05-11 07:42:00,
2013-05-11 02:52:00,49.0,-99.9,-100.00,South,183,2.0,2.0,-999,0.00,,,0.01,,2013-05-11 07:52:00,
2013-05-11 03:02:00,49.0,-99.9,-100.00,SSW,209,2.0,3.0,-999,0.00,,,0.01,,2013-05-11 08:02:00,
2013-05-11 03:12:00,49.0,-99.9,-100.00,SSW,209,2.0,3.0,-999,0.00,,,0.01,,2013-05-11 08:12:00,
2013-05-11 03:22:00,49.0,-99.9,-100.00,SSW,209,2.0,3.0,-999,0.00,,,0.01,,2013-05-11 08:22:00,
2013-05-11 03:32:00,49.0,-99.9,-100.00,South,183,3.0,3.0,-999,0.00,,,0.01,,2013-05-11 08:32:00,
2013-05-11 03:43:00,49.0,-99.9,-100.00,South,183,3.0,3.0,-999,0.00,,,0.01,,2013-05-11 08:43:00,
2013-05-11 03:52:00,49.0,-99.9,-100.00,South,183,3.0,3.0,-999,0.00,,,0.01,,2013-05-11 08:52:00,
2013-05-11 04:01:00,49.0,-99.9,-100.00,South,188,3.0,5.0,-999,0.00,,,0.01,,2013-05-11 09:01:00,
2013-05-11 04:12:00,49.0,-99.9,-100.00,South,188,3.0,5.0,-999,0.00,,,0.01,,2013-05-11 09:12:00,
2013-05-11 04:22:00,49.0,-99.9,-100.00,South,188,3.0,5.0,-999,0.00,,,0.01,,2013-05-11 09:22:00,
2013-05-11 04:33:00,48.0,-99.9,-100.00,SSW,192,3.0,5.0,-999,0.00,,,0.01,,2013-05-11 09:33:00,
2013-05-11 04:43:00,48.0,-99.9,-100.00,SSW,192,3.0,5.0,-999,0.00,,,0.01,,2013-05-11 09:43:00,
2013-05-11 04:53:00,48.0,-99.9,-100.00,SSW,192,3.0,5.0,-999,0.00,,,0.01,,2013-05-11 09:53:00,
2013-05-11 05:03:00,48.0,-99.9,-100.00,South,180,3.0,4.0,-999,0.00,,,0.01,,2013-05-11 10:03:00,
2013-05-11 05:12:00,48.0,-99.9,-100.00,South,180,3.0,4.0,-999,0.00,,,0.01,,2013-05-11 10:12:00,
2013-05-11 05:23:00,48.0,-99.9,-100.00,South,180,3.0,4.0,-999,0.00,,,0.01,,2013-05-11 10:23:00,
2013-05-11 05:33:00,48.0,-99.9,-100.00,South,190,4.0,6.0,-999,0.00,,,0.01,,2013-05-11 10:33:00,
2013-05-11 05:42:00,48.0,-99.9,-100.00,South,190,4.0,6.0,-999,0.00,,,0.01,,2013-05-11 10:42:00,
2013-05-11 05:53:00,48.0,-99.9,-100.00,South,190,4.0,6.0,-999,0.00,,,0.01,,2013-05-11 10:53:00,
2013-05-11 06:00:00,48.0,-99.9,-100.00,South,191,3.0,5.0,-999,0.00,,,0.01,,2013-05-11 11:00:00,
2013-05-11 06:03:00,48.0,-99.9,-100.00,SSW,204,4.0,8.0,-999,0.00,,,0.01,,2013-05-11 11:03:00,
2013-05-11 06:12:00,48.0,-99.9,-100.00,SSW,204,4.0,8.0,-999,0.00,,,0.01,,2013-05-11 11:12:00,
2013-05-11 06:22:00,48.0,-99.9,-100.00,SSW,204,4.0,8.0,-999,0.00,,,0.01,,2013-05-11 11:22:00,
2013-05-11 06:32:00,48.0,-99.9,-100.00,South,191,3.0,5.0,-999,0.00,,,0.01,,2013-05-11 11:32:00,
2013-05-11 06:42:00,48.0,-99.9,-100.00,South,191,3.0,5.0,-999,0.00,,,0.01,,2013-05-11 11:42:00,
2013-05-11 06:52:00,48.0,-99.9,-100.00,South,191,3.0,5.0,-999,0.00,,,0.01,,2013-05-11 11:52:00,
2013-05-11 07:32:00,51.0,-99.9,-100.00,SW,226,7.0,11.0,-999,0.00,,,0.00,,2013-05-11 12:32:00,
2013-05-11 07:42:00,51.0,-99.9,-100.00,SW,226,7.0,11.0,-999,0.00,,,0.00,,2013-05-11 12:42:00,
2013-05-11 07:52:00,51.0,-99.9,-100.00,SW,226,7.0,11.0,-999,0.00,,,0.00,,2013-05-11 12:52:00,
2013-05-11 08:02:00,52.0,-99.9,-100.00,SW,232,6.0,8.0,-999,0.00,,,0.00,,2013-05-11 13:02:00,
2013-05-11 08:11:00,52.0,-99.9,-100.00,SW,232,6.0,8.0,-999,0.00,,,0.00,,2013-05-11 13:11:00,
2013-05-11 08:22:00,52.0,-99.9,-100.00,SW,232,6.0,8.0,-999,0.00,,,0.00,,2013-05-11 13:22:00,
2013-05-11 08:32:00,52.0,-99.9,-100.00,West,262,9.0,13.0,-999,0.00,,,0.00,,2013-05-11 13:32:00,
2013-05-11 08:42:00,52.0,-99.9,-100.00,West,262,9.0,13.0,-999,0.00,,,0.00,,2013-05-11 13:42:00,
2013-05-11 08:52:00,52.0,-99.9,-100.00,West,262,9.0,13.0,-999,0.00,,,0.00,,2013-05-11 13:52:00,
2013-05-11 09:02:00,54.0,-99.9,-100.00,WNW,295,9.0,17.0,-999,0.01,,,0.01,,2013-05-11 14:02:00,
2013-05-11 09:11:00,54.0,-99.9,-100.00,WNW,295,9.0,17.0,-999,0.01,,,0.01,,2013-05-11 14:11:00,
2013-05-11 09:21:00,54.0,-99.9,-100.00,WNW,295,9.0,17.0,-999,0.01,,,0.01,,2013-05-11 14:21:00,
2013-05-11 09:30:00,53.0,-99.9,-100.00,WNW,283,9.0,18.0,-999,0.00,,,0.01,,2013-05-11 14:30:00,
2013-05-11 09:32:00,52.0,-99.9,-100.00,West,269,9.0,18.0,-999,0.01,,,0.01,,2013-05-11 14:32:00,
2013-05-11 09:42:00,52.0,-99.9,-100.00,West,269,9.0,18.0,-999,0.01,,,0.01,,2013-05-11 14:42:00,
2013-05-11 09:52:00,52.0,-99.9,-100.00,West,269,9.0,18.0,-999,0.01,,,0.01,,2013-05-11 14:52:00,
2013-05-11 10:02:00,53.0,-99.9,-100.00,WNW,283,9.0,18.0,-999,0.00,,,0.01,,2013-05-11 15:02:00,
2013-05-11 10:12:00,53.0,-99.9,-100.00,WNW,283,9.0,18.0,-999,0.00,,,0.01,,2013-05-11 15:12:00,
2013-05-11 10:22:00,53.0,-99.9,-100.00,WNW,283,9.0,18.0,-999,0.00,,,0.01,,2013-05-11 15:22:00,
2013-05-11 11:03:00,54.0,-99.9,-100.00,NW,310,8.0,22.0,-999,0.00,,,0.01,,2013-05-11 16:03:00,
2013-05-11 11:12:00,54.0,-99.9,-100.00,NW,310,8.0,22.0,-999,0.00,,,0.01,,2013-05-11 16:12:00,
2013-05-11 11:23:00,54.0,-99.9,-100.00,NW,310,8.0,22.0,-999,0.00,,,0.01,,2013-05-11 16:23:00,
2013-05-11 11:30:00,55.0,-99.9,-100.00,WNW,298,12.0,26.0,-999,0.00,,,0.01,,2013-05-11 16:30:00,
2013-05-11 11:33:00,54.0,-99.9,-100.00,WNW,300,13.0,23.0,-999,0.00,,,0.01,,2013-05-11 16:33:00,
2013-05-11 11:42:00,54.0,-99.9,-100.00,WNW,300,13.0,23.0,-999,0.00,,,0.01,,2013-05-11 16:42:00,
2013-05-11 11:53:00,54.0,-99.9,-100.00,WNW,300,13.0,23.0,-999,0.00,,,0.01,,2013-05-11 16:53:00,
2013-05-11 12:02:00,55.0,-99.9,-100.00,WNW,298,12.0,26.0,-999,0.00,,,0.01,,2013-05-11 17:02:00,
2013-05-11 12:12:00,55.0,-99.9,-100.00,WNW,298,12.0,26.0,-999,0.00,,,0.01,,2013-05-11 17:12:00,
2013-05-11 12:22:00,55.0,-99.9,-100.00,WNW,298,12.0,26.0,-999,0.00,,,0.01,,2013-05-11 17:22:00,
2013-05-11 13:01:00,55.0,-99.9,-100.00,WNW,303,13.0,25.0,-999,0.00,,,0.01,,2013-05-11 18:01:00,
2013-05-11 13:12:00,55.0,-99.9,-100.00,WNW,303,13.0,25.0,-999,0.00,,,0.01,,2013-05-11 18:12:00,
2013-05-11 13:22:00,55.0,-99.9,-100.00,WNW,303,13.0,25.0,-999,0.00,,,0.01,,2013-05-11 18:22:00,
2013-05-11 13:32:00,55.0,-99.9,-100.00,WNW,294,15.0,28.0,-999,0.00,,,0.01,,2013-05-11 18:32:00,
2013-05-11 13:42:00,55.0,-99.9,-100.00,WNW,294,15.0,28.0,-999,0.00,,,0.01,,2013-05-11 18:42:00,
2013-05-11 13:52:00,55.0,-99.9,-100.00,WNW,294,15.0,28.0,-999,0.00,,,0.01,,2013-05-11 18:52:00,
2013-05-11 14:02:00,55.0,-99.9,-100.00,NW,306,11.0,18.0,-999,0.00,,,0.01,,2013-05-11 19:02:00,
2013-05-11 14:11:00,55.0,-99.9,-100.00,NW,306,11.0,18.0,-999,0.00,,,0.01,,2013-05-11 19:11:00,
2013-05-11 14:22:00,55.0,-99.9,-100.00,NW,306,11.0,18.0,-999,0.00,,,0.01,,2013-05-11 19:22:00,
2013-05-11 14:32:00,55.0,-99.9,-100.00,NW,318,17.0,32.0,-999,0.00,,,0.01,,2013-05-11 19:32:00,
2013-05-11 14:42:00,55.0,-99.9,-100.00,NW,318,17.0,32.0,-999,0.00,,,0.01,,2013-05-11 19:42:00,
2013-05-11 14:53:00,55.0,-99.9,-100.00,NW,318,17.0,32.0,-999,0.00,,,0.01,,2013-05-11 19:53:00,
2013-05-11 15:02:00,54.0,-99.9,-100.00,NW,308,10.0,21.0,-999,0.00,,,0.01,,2013-05-11 20:02:00,
2013-05-11 15:12:00,54.0,-99.9,-100.00,NW,308,10.0,21.0,-999,0.00,,,0.01,,2013-05-11 20:12:00,
2013-05-11 15:22:00,54.0,-99.9,-100.00,NW,308,10.0,21.0,-999,0.00,,,0.01,,2013-05-11 20:22:00,
2013-05-11 15:32:00,53.0,-99.9,-100.00,NW,305,18.0,29.0,-999,0.00,,,0.01,,2013-05-11 20:32:00,
2013-05-11 15:42:00,53.0,-99.9,-100.00,NW,305,18.0,29.0,-999,0.00,,,0.01,,2013-05-11 20:42:00,
2013-05-11 15:53:00,53.0,-99.9,-100.00,NW,305,18.0,29.0,-999,0.00,,,0.01,,2013-05-11 20:53:00,
2013-05-11 16:02:00,54.0,-99.9,-100.00,West,271,15.0,26.0,-999,0.00,,,0.01,,2013-05-11 21:02:00,
2013-05-11 16:12:00,54.0,-99.9,-100.00,West,271,15.0,26.0,-999,0.00,,,0.01,,2013-05-11 21:12:00,
2013-05-11 16:22:00,54.0,-99.9,-100.00,West,271,15.0,26.0,-999,0.00,,,0.01,,2013-05-11 21:22:00,
2013-05-11 16:33:00,54.0,-99.9,-100.00,WNW,293,10.0,15.0,-999,0.00,,,0.01,,2013-05-11 21:33:00,
2013-05-11 16:43:00,54.0,-99.9,-100.00,WNW,293,10.0,15.0,-999,0.00,,,0.01,,2013-05-11 21:43:00,
2013-05-11 16:53:00,54.0,-99.9,-100.00,WNW,293,10.0,15.0,-999,0.00,,,0.01,,2013-05-11 21:53:00,
2013-05-11 17:03:00,54.0,-99.9,-100.00,WNW,282,12.0,22.0,-999,0.00,,,0.01,,2013-05-11 22:03:00,
2013-05-11 17:13:00,54.0,-99.9,-100.00,WNW,282,12.0,22.0,-999,0.00,,,0.01,,2013-05-11 22:13:00,
2013-05-11 17:23:00,54.0,-99.9,-100.00,WNW,282,12.0,22.0,-999,0.00,,,0.01,,2013-05-11 22:23:00,
2013-05-11 17:33:00,53.0,-99.9,-100.00,NW,311,14.0,22.0,-999,0.00,,,0.01,,2013-05-11 22:33:00,
2013-05-11 17:43:00,53.0,-99.9,-100.00,NW,311,14.0,22.0,-999,0.00,,,0.01,,2013-05-11 22:43:00,
2013-05-11 17:52:00,53.0,-99.9,-100.00,NW,311,14.0,22.0,-999,0.00,,,0.01,,2013-05-11 22:52:00,
2013-05-11 18:02:00,54.0,-99.9,-100.00,WNW,283,10.0,20.0,-999,0.00,,,0.01,,2013-05-11 23:02:00,
2013-05-11 18:12:00,54.0,-99.9,-100.00,WNW,283,10.0,20.0,-999,0.00,,,0.01,,2013-05-11 23:12:00,
2013-05-11 18:22:00,54.0,-99.9,-100.00,WNW,283,10.0,20.0,-999,0.00,,,0.01,,2013-05-11 23:22:00,
2013-05-11 18:30:00,54.0,-99.9,-100.00,NW,314,12.0,29.0,-999,0.00,,,0.01,,2013-05-11 23:30:00,
2013-05-11 18:32:00,54.0,-99.9,-100.00,WNW,303,13.0,22.0,-999,0.00,,,0.01,,2013-05-11 23:32:00,
2013-05-11 18:42:00,54.0,-99.9,-100.00,WNW,303,13.0,22.0,-999,0.00,,,0.01,,2013-05-11 23:42:00,
2013-05-11 18:52:00,54.0,-99.9,-100.00,WNW,303,13.0,22.0,-999,0.00,,,0.01,,2013-05-11 23:52:00,
2013-05-11 19:01:00,54.0,-99.9,-100.00,NW,314,12.0,29.0,-999,0.00,,,0.01,,2013-05-12 00:01:00,
2013-05-11 19:12:00,54.0,-99.9,-100.00,NW,314,12.0,29.0,-999,0.00,,,0.01,,2013-05-12 00:12:00,
2013-05-11 19:22:00,54.0,-99.9,-100.00,NW,314,12.0,29.0,-999,0.00,,,0.01,,2013-05-12 00:22:00,
2013-05-11 20:02:00,53.0,-99.9,-100.00,NW,314,10.0,19.0,-999,0.00,,,0.01,,2013-05-12 01:02:00,
2013-05-11 20:11:00,53.0,-99.9,-100.00,NW,314,10.0,19.0,-999,0.00,,,0.01,,2013-05-12 01:11:00,
2013-05-11 20:21:00,53.0,-99.9,-100.00,NW,314,10.0,19.0,-999,0.00,,,0.01,,2013-05-12 01:21:00,
2013-05-11 20:32:00,51.0,-99.9,-100.00,NW,314,7.0,15.0,-999,0.00,,,0.01,,2013-05-12 01:32:00,
2013-05-11 20:42:00,51.0,-99.9,-100.00,NW,314,7.0,15.0,-999,0.00,,,0.01,,2013-05-12 01:42:00,
2013-05-11 20:52:00,51.0,-99.9,-100.00,NW,314,7.0,15.0,-999,0.00,,,0.01,,2013-05-12 01:52:00,
2013-05-11 21:02:00,51.0,-99.9,-100.00,NW,311,9.0,14.0,-999,0.00,,,0.01,,2013-05-12 02:02:00,
2013-05-11 21:12:00,51.0,-99.9,-100.00,NW,311,9.0,14.0,-999,0.00,,,0.01,,2013-05-12 02:12:00,
2013-05-11 21:22:00,51.0,-99.9,-100.00,NW,311,9.0,14.0,-999,0.00,,,0.01,,2013-05-12 02:22:00,
2013-05-11 21:32:00,49.0,-99.9,-100.00,WNW,292,8.0,14.0,-999,0.00,,,0.01,,2013-05-12 02:32:00,
2013-05-11 21:42:00,49.0,-99.9,-100.00,WNW,292,8.0,14.0,-999,0.00,,,0.01,,2013-05-12 02:42:00,
2013-05-11 21:52:00,49.0,-99.9,-100.00,WNW,292,8.0,14.0,-999,0.00,,,0.01,,2013-05-12 02:52:00,
2013-05-11 22:02:00,49.0,-99.9,-100.00,WNW,287,4.0,9.0,-999,0.00,,,0.01,,2013-05-12 03:02:00,
2013-05-11 22:12:00,49.0,-99.9,-100.00,WNW,287,4.0,9.0,-999,0.00,,,0.01,,2013-05-12 03:12:00,
2013-05-11 22:22:00,49.0,-99.9,-100.00,WNW,287,4.0,9.0,-999,0.00,,,0.01,,2013-05-12 03:22:00,
2013-05-11 22:33:00,48.0,-99.9,-100.00,West,274,6.0,9.0,-999,0.00,,,0.01,,2013-05-12 03:33:00,
2013-05-11 22:43:00,48.0,-99.9,-100.00,West,274,6.0,9.0,-999,0.00,,,0.01,,2013-05-12 03:43:00,
2013-05-11 22:53:00,48.0,-99.9,-100.00,West,274,6.0,9.0,-999,0.00,,,0.01,,2013-05-12 03:53:00,
2013-05-11 23:00:00,46.0,-99.9,-100.00,WNW,298,2.0,8.0,-999,0.00,,,0.01,,2013-05-12 04:00:00,
2013-05-11 23:03:00,-999.0,-99.9,-100.00,West,269,3.0,7.0,-999,0.00,,,0.01,,2013-05-12 04:03:00,
2013-05-11 23:13:00,47.0,-99.9,-100.00,West,269,3.0,7.0,-999,0.00,,,0.01,,2013-05-12 04:13:00,
2013-05-11 23:23:00,47.0,-99.9,-100.00,West,269,3.0,7.0,-999,0.00,,,0.01,,2013-05-12 04:23:00,
2013-05-11 23:33:00,46.0,-99.9,-100.00,WNW,298,2.0,8.0,-999,0.00,,,0.01,,2013-05-12 04:33:00,
2013-05-11 23:43:00,46.0,-99.9,-100.00,WNW,298,2.0,8.0,-999,0.00,,,0.01,,2013-05-12 04:43:00,
2013-05-11 23:52:00,46.0,-99.9,-100.00,WNW,298,2.0,8.0,-999,0.00,,,0.01,,2013-05-12 04:52:00,